Time;durP1;ratioP1;P1;durP2;ratioP2;P2;SDS_P1;SDS_P2;PMS_P1;PMS_P2;Temp;Humidity;BMP_temperature;BMP_pressure;BME280_temperature;BME280_humidity;BME280_pressure;Samples;Min_cycle;Max_cycle;Signal;HPM_P1;HPM_P2
2021/12/09 06:38:46;;;;;;;13.20;7.30;;;1.80;99.90;;;;;;4752896;27;10002038;-79
2021/12/09 06:41:35;;;;;;;14.73;8.13;;;1.80;99.90;;;;;;5089852;28;20762;-78
2021/12/09 06:44:34;;;;;;;14.43;6.97;;;1.80;99.90;;;;;;5084399;28;20448;-80
2021/12/09 06:46:59;;;;;;;10.73;6.88;;;1.90;99.90;;;;;;5084406;28;20259;-79
2021/12/09 06:49:28;;;;;;;15.47;7.53;;;1.50;99.90;;;;;;5086193;28;20205;-80
2021/12/09 06:51:54;;;;;;;10.25;6.97;;;1.90;99.90;;;;;;5089554;28;20193;-80
2021/12/09 06:54:19;;;;;;;8.27;6.47;;;2.20;99.90;;;;;;5094428;28;20204;-81
2021/12/09 06:56:45;;;;;;;9.80;7.20;;;2.20;99.90;;;;;;5079497;28;20202;-77
2021/12/09 06:59:11;;;;;;;7.23;6.50;;;2.30;99.90;;;;;;5074368;28;20486;-80
2021/12/09 07:01:37;;;;;;;8.93;7.23;;;2.40;99.90;;;;;;5061224;28;20711;-81
2021/12/09 07:04:04;;;;;;;9.55;8.55;;;2.40;99.90;;;;;;5057985;28;20444;-81
2021/12/09 07:06:32;;;;;;;11.27;7.72;;;2.40;99.90;;;;;;5066003;28;21235;-81
2021/12/09 07:09:00;;;;;;;12.07;7.55;;;2.40;99.90;;;;;;5056220;28;20217;-81
2021/12/09 07:11:26;;;;;;;10.60;7.05;;;2.40;99.90;;;;;;5060319;28;20282;-80
2021/12/09 07:13:55;;;;;;;8.55;6.82;;;2.50;99.90;;;;;;5059118;28;20206;-81
2021/12/09 07:16:39;;;;;;;11.25;6.97;;;2.50;99.90;;;;;;5125741;22;20213;-85
2021/12/09 07:19:12;;;;;;;12.73;7.72;;;2.60;99.90;;;;;;5094879;28;20316;-86
2021/12/09 07:21:48;;;;;;;;;;;;;;;;;;;;;
2021/12/09 07:24:20;;;;;;;7.65;6.53;;;3.30;99.90;;;;;;5091387;28;20181;-85
2021/12/09 07:27:01;;;;;;;11.00;7.20;;;3.50;99.90;;;;;;5090815;28;20620;-85
2021/12/09 07:29:28;;;;;;;7.70;6.75;;;2.10;99.90;;;;;;5086984;28;20197;-82
2021/12/09 07:31:57;;;;;;;13.23;6.63;;;2.90;99.90;;;;;;5096551;28;20263;-84
2021/12/09 07:34:24;;;;;;;16.38;6.72;;;2.00;99.90;;;;;;5089205;28;20194;-84
2021/12/09 07:36:49;;;;;;;7.97;6.05;;;2.40;99.90;;;;;;5096730;28;21091;-83
2021/12/09 07:39:16;;;;;;;6.50;6.03;;;3.90;99.90;;;;;;5090622;28;20200;-83
2021/12/09 07:41:41;;;;;;;5.57;5.18;;;2.60;99.90;;;;;;5087382;28;20520;-83
2021/12/09 07:44:07;;;;;;;7.23;5.30;;;2.00;99.90;;;;;;5089088;28;20313;-83
2021/12/09 07:46:38;;;;;;;7.82;6.65;;;2.60;99.90;;;;;;5090537;28;20701;-84
2021/12/09 07:49:06;;;;;;;6.53;5.90;;;2.70;99.90;;;;;;5084762;28;20648;-83
2021/12/09 07:51:32;;;;;;;5.28;4.88;;;2.50;99.90;;;;;;5078069;28;20229;-84
2021/12/09 07:53:59;;;;;;;11.33;5.70;;;2.50;99.90;;;;;;5076007;28;20716;-85
2021/12/09 07:56:25;;;;;;;7.75;5.88;;;2.60;99.90;;;;;;5076378;28;20286;-84
2021/12/09 07:58:50;;;;;;;6.80;5.03;;;1.80;99.90;;;;;;5074413;28;20197;-83
2021/12/09 08:01:16;;;;;;;11.13;6.13;;;4.00;99.90;;;;;;5071485;28;20196;-82
2021/12/09 08:03:42;;;;;;;7.00;4.80;;;2.70;99.90;;;;;;5079972;28;20355;-84
2021/12/09 08:06:08;;;;;;;7.55;4.75;;;2.70;99.90;;;;;;5089763;28;20272;-82
2021/12/09 08:08:33;;;;;;;5.27;4.80;;;3.80;99.90;;;;;;5070048;28;20782;-83
2021/12/09 08:10:59;;;;;;;6.97;5.27;;;3.40;99.90;;;;;;5072063;28;20186;-83
2021/12/09 08:13:25;;;;;;;8.47;5.77;;;3.30;99.90;;;;;;5075346;28;20182;-85
2021/12/09 08:15:53;;;;;;;5.90;4.70;;;2.90;99.90;;;;;;5065461;28;20750;-85
2021/12/09 08:20:45;;;;;;;5.30;4.90;;;3.00;99.90;;;;;;5080912;28;20735;-83
2021/12/09 08:23:11;;;;;;;5.15;4.85;;;3.10;99.90;;;;;;5083833;28;20174;-83
2021/12/09 08:25:41;;;;;;;11.17;5.43;;;3.00;99.90;;;;;;5082163;28;20543;-90
2021/12/09 08:28:38;;;;;;;5.45;4.25;;;3.20;99.90;;;;;;5087289;28;20454;-86
2021/12/09 08:31:11;;;;;;;5.65;4.15;;;2.60;99.90;;;;;;5084307;28;20626;-86
2021/12/09 08:33:44;;;;;;;8.70;5.72;;;3.30;99.90;;;;;;5082622;28;20179;-85
2021/12/09 08:36:12;;;;;;;4.53;4.20;;;3.30;99.90;;;;;;5091547;28;20185;-84
2021/12/09 08:39:12;;;;;;;6.35;4.70;;;3.30;99.90;;;;;;5089240;28;20182;-83
2021/12/09 08:41:39;;;;;;;5.10;3.15;;;3.30;99.90;;;;;;5091151;28;20186;-85
2021/12/09 08:44:07;;;;;;;7.72;5.55;;;3.40;99.90;;;;;;5088118;28;20494;-87
2021/12/09 08:46:33;;;;;;;8.70;6.32;;;5.60;99.90;;;;;;5075920;28;20473;-86
2021/12/09 08:48:58;;;;;;;6.70;5.00;;;3.50;99.90;;;;;;5076291;28;20647;-83
2021/12/09 08:51:24;;;;;;;7.53;3.90;;;3.60;99.90;;;;;;5080007;28;20191;-85
2021/12/09 08:53:52;;;;;;;7.33;6.00;;;5.30;99.90;;;;;;5080436;28;20448;-84
2021/12/09 08:56:17;;;;;;;10.10;8.77;;;3.60;99.90;;;;;;5080286;28;20285;-77
2021/12/09 08:58:43;;;;;;;8.40;4.77;;;3.60;99.90;;;;;;5081175;28;20259;-79
2021/12/09 09:01:12;;;;;;;5.57;5.07;;;3.70;99.90;;;;;;5073233;28;20250;-84
2021/12/09 09:03:38;;;;;;;10.90;4.47;;;3.70;99.90;;;;;;5072576;28;20604;-84
2021/12/09 09:06:04;;;;;;;12.40;5.80;;;3.70;99.90;;;;;;5073105;28;20182;-84
2021/12/09 09:08:32;;;;;;;5.75;4.57;;;3.80;99.90;;;;;;5075777;28;20209;-79
2021/12/09 09:10:58;;;;;;;8.88;4.90;;;3.90;99.90;;;;;;5080153;28;20290;-81
2021/12/09 09:13:24;;;;;;;6.70;4.83;;;3.90;99.90;;;;;;5077183;28;20336;-81
2021/12/09 09:15:50;;;;;;;8.30;4.07;;;3.90;99.90;;;;;;5077885;28;20261;-84
2021/12/09 09:18:18;;;;;;;5.43;5.00;;;4.00;99.90;;;;;;5076605;28;20229;-85
2021/12/09 09:20:44;;;;;;;4.97;4.43;;;4.00;99.90;;;;;;5070554;28;20704;-81
2021/12/09 09:23:12;;;;;;;6.30;4.97;;;4.10;99.90;;;;;;5071814;28;20205;-83
2021/12/09 09:25:39;;;;;;;3.33;3.13;;;4.10;99.90;;;;;;5074027;28;20829;-84
2021/12/09 09:28:08;;;;;;;5.22;4.45;;;4.50;99.90;;;;;;5079968;28;20229;-86
2021/12/09 09:30:38;;;;;;;4.20;3.80;;;5.10;99.90;;;;;;5077095;28;20198;-83
2021/12/09 09:33:13;;;;;;;15.45;4.80;;;6.90;99.90;;;;;;5080265;28;20213;-85
2021/12/09 09:35:41;;;;;;;5.53;3.85;;;6.60;99.90;;;;;;5077845;28;20229;-85
2021/12/09 09:38:07;;;;;;;9.10;4.45;;;7.50;99.90;;;;;;5080428;28;20190;-85
2021/12/09 09:40:41;;;;;;;6.70;4.23;;;7.50;99.90;;;;;;5071024;28;20202;-84
2021/12/09 09:46:30;;;;;;;4.40;4.10;;;8.10;99.90;;;;;;5078991;28;20246;-84
2021/12/09 09:48:58;;;;;;;3.33;3.05;;;8.20;99.90;;;;;;5078328;28;20224;-84
2021/12/09 09:51:30;;;;;;;6.28;3.75;;;7.90;99.90;;;;;;5078331;28;20393;-81
2021/12/09 09:53:57;;;;;;;4.68;3.83;;;7.40;99.90;;;;;;5083017;28;20566;-84
2021/12/09 09:56:24;;;;;;;4.00;3.58;;;8.40;99.90;;;;;;5075740;28;20203;-82
2021/12/09 09:58:59;;;;;;;3.75;3.45;;;8.30;99.90;;;;;;5080505;28;20173;-85
2021/12/09 10:01:28;;;;;;;5.80;4.53;;;6.40;99.90;;;;;;4719045;28;10000259;-80
2021/12/09 10:04:09;;;;;;;11.57;5.07;;;6.20;99.90;;;;;;5068865;28;20647;-84
2021/12/09 10:06:35;;;;;;;3.30;3.20;;;6.00;99.90;;;;;;5143674;22;20230;-89
2021/12/09 10:09:41;;;;;;;8.75;5.53;;;7.40;99.90;;;;;;5065700;28;20185;-88
2021/12/09 10:13:15;;;;;;;5.72;4.43;;;7.50;99.90;;;;;;5059053;28;20211;-88
2021/12/09 10:16:43;;;;;;;4.13;3.90;;;5.90;99.90;;;;;;5050657;28;20285;-93
2021/12/09 10:19:46;;;;;;;5.63;4.85;;;7.30;99.90;;;;;;5078021;28;20265;-94
2021/12/09 10:23:12;;;;;;;4.82;4.53;;;6.90;99.90;;;;;;5065035;28;20615;-92
2021/12/09 10:26:36;;;;;;;4.25;4.05;;;6.60;99.90;;;;;;5059672;28;20175;-92
2021/12/09 10:30:03;;;;;;;6.30;4.53;;;7.30;99.90;;;;;;5059274;28;20289;-90
2021/12/09 10:33:29;;;;;;;5.95;4.85;;;6.20;99.90;;;;;;5081699;28;20178;-89
2021/12/09 10:36:50;;;;;;;4.63;4.28;;;6.20;99.90;;;;;;5085905;28;20194;-91
2021/12/09 10:39:39;;;;;;;5.65;5.13;;;6.00;99.90;;;;;;5082807;28;20177;-93
2021/12/09 10:42:27;;;;;;;5.78;5.10;;;6.10;99.90;;;;;;5075349;28;20419;-92
2021/12/09 10:45:55;;;;;;;7.38;3.95;;;5.80;99.90;;;;;;5076307;28;20187;-91
2021/12/09 10:51:36;;;;;;;8.23;4.82;;;5.90;99.90;;;;;;5084507;28;20208;-80
2021/12/09 10:54:03;;;;;;;5.43;4.90;;;6.10;99.90;;;;;;5084295;28;20177;-81
2021/12/09 10:56:31;;;;;;;8.70;5.05;;;6.30;99.90;;;;;;5065758;28;20169;-83
2021/12/09 10:58:57;;;;;;;8.68;4.50;;;6.30;99.90;;;;;;5064327;28;20540;-81
2021/12/09 11:01:24;;;;;;;11.23;5.03;;;6.20;99.90;;;;;;5063302;28;20718;-80
2021/12/09 11:04:03;;;;;;;6.22;4.28;;;6.20;99.90;;;;;;5051695;28;20278;-81
2021/12/09 11:06:38;;;;;;;10.02;4.95;;;6.10;99.90;;;;;;5088233;28;20699;-80
2021/12/09 11:09:06;;;;;;;12.57;5.50;;;6.10;99.90;;;;;;5082905;28;20204;-80
2021/12/09 11:11:34;;;;;;;9.93;5.93;;;6.10;99.90;;;;;;5082675;28;20190;-78
2021/12/09 11:14:12;;;;;;;4.47;3.90;;;6.10;99.90;;;;;;5074068;28;20198;-80
2021/12/09 11:16:42;;;;;;;11.13;4.68;;;6.30;99.90;;;;;;5082385;28;20280;-81
2021/12/09 11:19:12;;;;;;;5.63;4.97;;;6.30;99.90;;;;;;5077996;28;20198;-80
2021/12/09 11:21:43;;;;;;;7.32;5.45;;;6.20;99.90;;;;;;5051131;28;20194;-80
2021/12/09 11:24:12;;;;;;;10.13;4.88;;;6.20;99.90;;;;;;5077418;28;20258;-80
2021/12/09 11:26:50;;;;;;;10.10;4.88;;;6.00;99.90;;;;;;5056040;28;20689;-80
2021/12/09 11:29:28;;;;;;;5.65;4.30;;;6.00;99.90;;;;;;5078293;28;20185;-81
2021/12/09 11:32:13;;;;;;;5.22;4.82;;;6.00;99.90;;;;;;5068850;28;20198;-81
2021/12/09 11:34:56;;;;;;;8.15;4.97;;;6.00;99.90;;;;;;5076975;28;20214;-83
2021/12/09 11:40:36;;;;;;;7.68;5.00;;;6.00;99.90;;;;;;5075610;28;20543;-81
2021/12/09 11:43:21;;;;;;;6.75;5.15;;;5.90;99.90;;;;;;5056242;28;20369;-81
2021/12/09 11:45:48;;;;;;;5.20;4.70;;;6.00;99.90;;;;;;5048548;28;20205;-81
2021/12/09 11:48:15;;;;;;;5.32;5.03;;;6.10;99.90;;;;;;5050255;28;20226;-80
2021/12/09 11:50:46;;;;;;;8.88;5.43;;;5.90;99.90;;;;;;5072665;28;20230;-81
2021/12/09 11:53:22;;;;;;;6.28;5.65;;;6.00;99.90;;;;;;5050847;28;20197;-78
2021/12/09 11:58:41;;;;;;;7.28;5.75;;;6.00;99.90;;;;;;5069841;28;20385;-80
2021/12/09 12:07:17;;;;;;;11.85;6.40;;;6.50;99.90;;;;;;5083544;28;20216;-82
2021/12/09 12:12:54;;;;;;;7.50;6.35;;;6.40;99.90;;;;;;5087743;28;20194;-83
2021/12/09 12:30:00;;;;;;;5.43;4.95;;;7.10;99.90;;;;;;5120818;28;20244;-84
2021/12/09 12:41:00;;;;;;;5.10;4.45;;;5.80;99.90;;;;;;5082244;28;20193;-85
2021/12/09 12:43:42;;;;;;;6.57;5.00;;;5.30;99.90;;;;;;5081969;28;20170;-83
2021/12/09 12:51:35;;;;;;;4.35;3.78;;;5.90;99.90;;;;;;5102332;28;20218;-82
2021/12/09 12:54:13;;;;;;;10.52;5.95;;;5.80;99.90;;;;;;5095339;28;20182;-85
2021/12/09 12:56:57;;;;;;;6.25;5.25;;;7.40;99.90;;;;;;5104275;28;20191;-86
2021/12/09 12:59:38;;;;;;;11.57;4.72;;;6.00;99.90;;;;;;5085198;28;20185;-83
2021/12/09 13:02:15;;;;;;;6.82;5.38;;;5.90;99.90;;;;;;5104536;28;20186;-78
2021/12/09 13:05:02;;;;;;;10.07;5.75;;;6.80;99.90;;;;;;5099151;28;20181;-86
2021/12/09 13:11:14;;;;;;;6.03;4.65;;;6.20;99.90;;;;;;5110767;28;20189;-81
2021/12/09 13:14:05;;;;;;;5.85;4.15;;;6.80;99.90;;;;;;5106163;28;20203;-85
2021/12/09 13:17:26;;;;;;;4.72;4.32;;;4.90;99.90;;;;;;5098181;28;20217;-84
2021/12/09 13:20:04;;;;;;;5.35;4.85;;;5.30;99.90;;;;;;5081127;28;20376;-84
2021/12/09 13:23:05;;;;;;;5.55;4.97;;;5.70;99.90;;;;;;5087854;28;20174;-85
2021/12/09 13:25:33;;;;;;;8.90;5.68;;;5.40;99.90;;;;;;5082792;28;20202;-81
2021/12/09 13:28:07;;;;;;;10.65;5.28;;;5.30;99.90;;;;;;5087356;28;20209;-82
2021/12/09 13:55:16;;;;;;;7.22;5.10;;;4.80;99.90;;;;;;5061584;28;20428;-89
2021/12/09 13:57:50;;;;;;;7.80;5.53;;;6.10;99.90;;;;;;4718447;28;10000279;-90
2021/12/09 14:00:24;;;;;;;6.75;4.35;;;5.10;99.90;;;;;;5076236;28;20815;-85
2021/12/09 14:03:07;;;;;;;6.10;3.90;;;4.60;99.90;;;;;;5080084;28;20230;-87
2021/12/09 14:06:09;;;;;;;5.68;5.18;;;5.10;99.90;;;;;;5074888;28;20178;-85
2021/12/09 14:08:49;;;;;;;5.10;4.70;;;5.20;99.90;;;;;;5047353;28;20758;-85
2021/12/09 14:11:34;;;;;;;6.20;5.07;;;5.10;99.90;;;;;;5061995;28;20226;-81
2021/12/09 14:14:12;;;;;;;5.47;4.95;;;4.60;99.90;;;;;;5061771;28;20186;-85
2021/12/09 14:16:54;;;;;;;8.77;4.90;;;5.00;99.90;;;;;;5064174;28;20209;-85
2021/12/09 14:22:23;;;;;;;5.00;4.47;;;5.40;99.90;;;;;;5063464;28;20644;-84
2021/12/09 14:24:48;;;;;;;7.85;5.20;;;4.90;99.90;;;;;;5069610;28;20224;-83
2021/12/09 14:27:23;;;;;;;7.17;5.07;;;5.40;99.90;;;;;;5065385;28;20244;-85
2021/12/09 14:29:52;;;;;;;4.43;4.07;;;5.00;99.90;;;;;;5053377;28;20273;-83
2021/12/09 14:32:20;;;;;;;4.40;4.07;;;4.90;99.90;;;;;;5067129;28;20252;-82
2021/12/09 14:34:49;;;;;;;6.95;5.05;;;5.00;99.90;;;;;;5052226;28;20195;-82
2021/12/09 14:37:19;;;;;;;11.55;6.13;;;6.00;99.90;;;;;;5068005;28;20483;-82
2021/12/09 14:39:46;;;;;;;5.88;5.07;;;4.80;99.90;;;;;;5060238;28;20576;-82
2021/12/09 14:42:19;;;;;;;5.82;4.50;;;5.50;99.90;;;;;;5063004;28;20182;-84
2021/12/09 14:44:58;;;;;;;6.70;5.88;;;6.50;99.90;;;;;;5056644;28;20347;-83
2021/12/09 14:47:25;;;;;;;7.25;6.03;;;4.90;99.90;;;;;;5057404;28;20202;-80
2021/12/09 14:49:54;;;;;;;7.13;5.43;;;4.30;99.90;;;;;;5053041;28;20195;-82
2021/12/09 14:52:43;;;;;;;7.25;4.95;;;4.30;99.90;;;;;;5057801;28;20195;-79
2021/12/09 14:55:26;;;;;;;7.45;5.70;;;5.30;99.90;;;;;;5050763;28;20198;-81
2021/12/09 14:57:53;;;;;;;6.00;5.40;;;4.70;99.90;;;;;;5071624;28;20213;-83
2021/12/09 15:00:32;;;;;;;12.95;6.18;;;4.80;99.90;;;;;;5065100;28;20217;-81
2021/12/09 15:03:54;;;;;;;6.68;5.90;;;6.30;99.90;;;;;;5063535;28;20201;-83
2021/12/09 15:06:25;;;;;;;6.47;5.97;;;4.90;99.90;;;;;;5064634;28;20285;-83
2021/12/09 15:09:14;;;;;;;10.20;5.57;;;5.50;99.90;;;;;;5069917;28;20262;-82
2021/12/09 15:11:47;;;;;;;6.00;5.60;;;6.80;99.90;;;;;;5074113;28;20348;-83
